createdAt,value
2018-02-15T00:29:46.823Z,3.40
2018-02-15T00:32:13.517Z,3.40
2018-02-15T00:34:40.070Z,3.30
2018-02-15T00:37:06.663Z,3.20
2018-02-15T00:51:36.597Z,3.40
2018-02-15T00:54:03.211Z,3.30
2018-02-15T00:56:29.799Z,3.30
2018-02-15T00:58:56.431Z,3.30
2018-02-15T01:01:23.050Z,3.30
2018-02-15T01:03:49.705Z,3.40
2018-02-15T01:06:16.325Z,3.30
2018-02-15T01:08:42.916Z,3.40
2018-02-15T01:11:09.504Z,3.40
2018-02-15T01:13:36.910Z,3.30
2018-02-15T01:16:03.494Z,3.20
2018-02-15T01:18:30.118Z,3.30
2018-02-15T01:20:56.678Z,3.30
2018-02-15T01:23:23.256Z,3.30
2018-02-15T01:25:49.835Z,3.40
2018-02-15T01:28:16.425Z,3.40
2018-02-15T01:30:43.064Z,3.30
2018-02-15T01:33:09.649Z,3.20
2018-02-15T01:35:36.250Z,3.20
2018-02-15T01:38:02.880Z,3.30
2018-02-15T02:01:31.192Z,3.30
2018-02-15T02:03:57.772Z,3.30
2018-02-15T02:06:24.390Z,3.30
2018-02-15T02:08:50.936Z,3.40
2018-02-15T02:11:17.491Z,3.30
2018-02-15T02:13:44.097Z,3.40
2018-02-15T02:16:10.676Z,3.40
2018-02-15T02:18:37.299Z,3.40
2018-02-15T02:21:03.851Z,3.40
2018-02-15T02:23:30.429Z,3.40
2018-02-15T02:25:57.077Z,3.40
2018-02-15T02:28:23.683Z,3.40
2018-02-15T02:30:50.302Z,3.40
2018-02-15T02:33:16.900Z,3.40
2018-02-15T02:35:43.536Z,3.30
2018-02-15T02:38:10.916Z,3.30
2018-02-15T02:40:37.516Z,3.30
2018-02-15T02:43:04.149Z,3.40
2018-02-15T02:45:30.693Z,3.40
2018-02-15T02:47:57.264Z,3.40
2018-02-15T02:50:23.887Z,3.40
2018-02-15T02:52:51.209Z,3.40
2018-02-15T02:55:17.832Z,3.40
2018-02-15T02:57:44.466Z,3.30
2018-02-15T03:00:11.775Z,3.40
2018-02-15T03:02:38.430Z,3.30
2018-02-15T03:05:05.028Z,3.40
2018-02-15T03:07:41.594Z,3.40
2018-02-15T03:10:08.194Z,3.40
2018-02-15T03:12:34.790Z,3.40
2018-02-15T03:15:01.420Z,3.40
2018-02-15T03:17:28.016Z,3.30
2018-02-15T03:19:54.644Z,3.40
2018-02-15T03:22:21.272Z,3.40
2018-02-15T03:27:49.354Z,3.40
2018-02-15T03:30:15.970Z,3.40
2018-02-15T03:32:43.628Z,3.40
2018-02-15T03:35:10.191Z,3.40
2018-02-15T03:37:36.785Z,3.40
2018-02-15T03:40:03.397Z,3.40
2018-02-15T04:00:30.063Z,3.40
2018-02-15T04:05:57.902Z,3.40
2018-02-15T04:08:24.590Z,3.30
2018-02-15T04:10:51.169Z,3.30
2018-02-15T04:31:18.907Z,3.00
2018-02-15T04:36:45.612Z,2.80
2018-02-15T05:45:15.200Z,2.00
2018-02-15T05:47:41.858Z,2.00
2018-02-15T05:50:08.596Z,2.10
2018-02-15T05:52:35.256Z,2.10
2018-02-15T05:55:02.596Z,2.20
2018-02-15T05:57:29.352Z,2.00
2018-02-15T05:59:56.214Z,1.80
2018-02-15T06:02:22.852Z,1.90
2018-02-15T06:08:12.202Z,1.90
2018-02-15T06:10:38.884Z,1.80
2018-02-15T06:13:05.707Z,1.90
2018-02-15T06:15:48.957Z,1.70
2018-02-15T06:18:17.200Z,1.80
2018-02-15T08:09:49.655Z,2.10
2018-02-15T08:12:18.048Z,2.10
2018-02-15T08:46:00.343Z,2.30
2018-02-15T09:13:02.743Z,2.50
2018-02-15T09:15:29.527Z,2.50
2018-02-15T09:17:56.363Z,2.50
2018-02-15T09:20:23.109Z,2.50
2018-02-15T09:22:49.974Z,2.50
2018-02-15T09:28:45.187Z,2.50
2018-02-15T09:31:13.168Z,2.60
2018-02-15T09:33:40.714Z,2.60
2018-02-15T09:36:09.127Z,2.50
2018-02-15T09:38:37.193Z,2.60
2018-02-15T09:41:06.389Z,2.60
2018-02-15T09:43:36.104Z,2.50
2018-02-15T10:04:02.457Z,2.60
2018-02-15T10:06:29.239Z,2.50
2018-02-15T10:08:56.070Z,2.60
2018-02-15T10:29:22.511Z,2.70
2018-02-15T10:49:50.688Z,2.80
2018-02-15T10:52:17.422Z,2.90
2018-02-15T10:54:44.598Z,2.90
2018-02-15T10:57:11.820Z,2.90
2018-02-15T10:59:40.080Z,2.90
2018-02-15T11:02:13.018Z,2.90
2018-02-15T11:04:47.845Z,2.90
2018-02-15T11:07:14.879Z,2.90
2018-02-15T11:09:41.802Z,2.90
2018-02-15T11:12:11.934Z,2.90
2018-02-15T11:14:38.766Z,2.90
2018-02-15T11:17:05.481Z,2.90
2018-02-15T11:19:32.553Z,3.00
2018-02-15T11:21:59.307Z,3.00
2018-02-15T11:24:26.143Z,3.00
2018-02-15T11:47:51.535Z,3.10
2018-02-15T11:50:18.156Z,3.10
2018-02-15T11:52:45.547Z,3.20
2018-02-15T11:55:12.222Z,3.20
2018-02-15T11:57:38.863Z,3.10
2018-02-15T12:00:05.578Z,3.10
2018-02-15T12:02:32.196Z,3.10
2018-02-15T12:04:58.814Z,3.20
2018-02-15T12:07:25.468Z,3.20
2018-02-15T12:09:52.875Z,3.30
2018-02-15T12:12:19.597Z,3.30
2018-02-15T12:14:46.331Z,3.30
2018-02-15T12:17:13.031Z,3.30
2018-02-15T12:19:40.538Z,3.30
2018-02-15T12:22:08.060Z,3.30
2018-02-15T12:24:34.827Z,3.30
2018-02-15T12:45:02.182Z,3.50
2018-02-15T12:47:28.955Z,3.50
2018-02-15T12:49:55.723Z,3.50
2018-02-15T12:52:22.456Z,3.50
2018-02-15T12:54:49.745Z,3.50
2018-02-15T12:57:17.507Z,3.60
2018-02-15T12:59:44.834Z,3.60
2018-02-15T13:20:18.896Z,3.60
2018-02-15T13:22:58.847Z,3.60
2018-02-15T14:02:08.555Z,3.80
2018-02-15T14:04:36.065Z,3.80
2018-02-15T14:07:04.500Z,3.90
2018-02-15T14:09:32.394Z,3.90
2018-02-15T14:11:59.246Z,3.90
2018-02-15T14:14:27.018Z,3.90
2018-02-15T14:16:55.158Z,3.90
2018-02-15T14:19:23.454Z,3.90
2018-02-15T14:39:51.888Z,4.10
2018-02-15T14:42:18.699Z,4.10
2018-02-15T14:44:45.476Z,4.10
2018-02-15T14:47:12.298Z,4.10
2018-02-15T14:49:39.795Z,4.10
2018-02-15T14:52:07.789Z,4.10
2018-02-15T14:54:34.708Z,4.20
2018-02-15T14:57:01.849Z,4.20
2018-02-15T14:59:28.981Z,4.20
2018-02-15T15:01:56.513Z,4.20
2018-02-15T15:04:23.415Z,4.20
2018-02-15T15:06:50.880Z,4.20
2018-02-15T15:09:18.946Z,4.30
2018-02-15T15:11:46.392Z,4.30
2018-02-15T15:14:13.103Z,4.30
2018-02-15T15:16:40.681Z,4.30
2018-02-15T15:19:08.133Z,4.30
2018-02-15T15:21:34.980Z,4.30
2018-02-15T15:24:01.940Z,4.30
2018-02-15T15:26:29.786Z,4.30
2018-02-15T15:46:59.592Z,4.30
2018-02-15T15:49:27.984Z,4.30
2018-02-15T15:51:56.221Z,4.30
2018-02-15T15:54:25.288Z,4.30
2018-02-15T15:56:54.478Z,4.30
2018-02-15T15:59:23.928Z,4.30
2018-02-15T16:01:52.677Z,4.30
2018-02-15T16:22:23.797Z,4.50
2018-02-15T16:24:52.185Z,4.40
2018-02-15T16:27:20.382Z,4.50
2018-02-15T16:29:48.694Z,4.50
2018-02-15T16:32:17.082Z,4.50
2018-02-15T16:34:45.541Z,4.50
2018-02-15T16:37:14.756Z,4.50
2018-02-15T16:39:44.448Z,4.60
2018-02-15T16:42:12.978Z,4.60
2018-02-15T16:44:42.280Z,4.70
2018-02-15T16:47:11.530Z,4.60
2018-02-15T16:49:40.011Z,4.60
2018-02-15T16:52:09.178Z,4.60
2018-02-15T16:54:37.550Z,4.60
2018-02-15T17:15:18.474Z,4.70
2018-02-15T17:17:53.817Z,4.70
2018-02-15T17:20:23.073Z,4.70
2018-02-15T17:22:51.557Z,4.70
2018-02-15T17:25:20.271Z,4.70
2018-02-15T17:27:49.541Z,4.70
2018-02-15T17:30:18.064Z,4.70
2018-02-15T17:32:46.511Z,4.70
2018-02-15T17:35:18.619Z,4.70
2018-02-15T17:37:47.192Z,4.70
2018-02-15T17:40:23.386Z,4.70
2018-02-15T17:42:55.766Z,4.70
2018-02-15T18:03:24.090Z,4.80
2018-02-15T18:05:52.934Z,4.80
2018-02-15T18:08:21.737Z,4.90
2018-02-15T18:10:51.409Z,4.90
2018-02-15T18:13:28.930Z,4.80
2018-02-15T18:34:01.372Z,4.80
2018-02-15T18:36:29.738Z,4.80
2018-02-15T18:38:58.205Z,4.80
2018-02-15T18:41:26.613Z,4.80
2018-02-15T18:43:55.713Z,4.90
2018-02-15T18:46:24.253Z,4.90
2018-02-15T18:48:53.437Z,5.00
2018-02-15T19:09:22.898Z,4.90
2018-02-15T19:11:52.993Z,4.80
2018-02-15T19:14:22.448Z,5.00
2018-02-15T19:16:51.626Z,5.00
2018-02-15T19:19:20.100Z,5.00
2018-02-15T19:39:49.031Z,5.10
2018-02-15T19:42:17.393Z,5.10
2018-02-15T19:44:46.616Z,5.30
2018-02-15T19:47:16.636Z,5.30
2018-02-15T19:49:46.933Z,5.40
2018-02-15T19:55:35.981Z,5.40
2018-02-15T19:58:04.524Z,5.40
2018-02-15T20:00:32.933Z,5.60
2018-02-15T20:03:01.607Z,5.70
2018-02-15T20:05:29.985Z,5.70
2018-02-15T20:07:58.358Z,5.70
2018-02-15T20:10:27.399Z,5.60
2018-02-15T20:12:55.682Z,5.50
2018-02-15T20:15:24.286Z,5.50
2018-02-15T20:17:52.597Z,5.10
2018-02-15T20:20:24.194Z,4.90
2018-02-15T20:22:52.564Z,4.60
2018-02-15T20:25:20.938Z,4.60
2018-02-15T20:27:55.306Z,4.40
2018-02-15T20:30:23.832Z,4.70
2018-02-15T20:38:58.837Z,4.30
2018-02-15T20:41:27.888Z,4.60
2018-02-15T20:43:56.129Z,4.60
2018-02-15T20:58:26.403Z,4.80
2018-02-15T21:00:54.911Z,4.40
2018-02-15T21:03:23.352Z,4.10
2018-02-15T21:05:51.806Z,4.30
2018-02-15T21:08:20.319Z,3.80
2018-02-15T21:10:49.068Z,4.10
2018-02-15T21:13:18.222Z,4.00
2018-02-15T21:15:46.642Z,4.00
2018-02-15T21:18:15.107Z,3.80
2018-02-15T21:20:43.466Z,4.10
2018-02-15T21:23:14.314Z,4.00
2018-02-15T21:25:43.361Z,4.10
2018-02-15T21:28:12.243Z,4.10
2018-02-15T21:30:40.200Z,4.10
2018-02-15T21:33:08.497Z,4.00
2018-02-15T21:35:36.947Z,3.60
2018-02-15T21:38:05.291Z,3.10
2018-02-15T21:40:33.705Z,3.10
2018-02-15T21:43:02.211Z,3.40
2018-02-15T21:45:30.606Z,3.20
2018-02-15T21:47:58.938Z,3.00
2018-02-15T21:50:27.113Z,3.20
2018-02-15T21:52:55.724Z,3.10
2018-02-15T21:55:23.867Z,3.00
2018-02-15T21:57:51.957Z,3.20
2018-02-15T22:00:19.563Z,2.90
2018-02-15T22:02:47.087Z,2.40
2018-02-15T22:05:14.029Z,2.20
2018-02-15T22:07:41.325Z,2.30
2018-02-15T22:10:08.365Z,2.40
2018-02-15T22:12:35.376Z,2.60
2018-02-15T22:15:02.121Z,2.30
2018-02-15T22:17:30.087Z,2.70
2018-02-15T22:19:56.764Z,2.40
2018-02-15T22:22:25.089Z,1.90
2018-02-15T22:24:52.394Z,2.00
2018-02-15T22:27:19.135Z,1.80
2018-02-15T22:29:46.248Z,2.00
2018-02-15T22:32:13.462Z,2.00
2018-02-15T22:34:41.454Z,1.60
2018-02-15T22:37:08.293Z,1.60
2018-02-15T22:39:36.147Z,1.50
2018-02-15T22:42:03.226Z,1.40
2018-02-15T22:44:29.878Z,1.50
2018-02-15T22:46:56.492Z,2.10
2018-02-15T22:49:23.070Z,2.40
2018-02-15T22:51:49.732Z,2.50
2018-02-15T22:54:16.403Z,2.70
2018-02-15T22:59:14.648Z,2.40
2018-02-15T23:01:41.251Z,2.00
2018-02-15T23:04:10.021Z,1.40
2018-02-15T23:06:36.644Z,1.50
2018-02-15T23:09:03.334Z,1.70
2018-02-15T23:11:29.932Z,1.50
2018-02-15T23:13:56.577Z,2.00
2018-02-15T23:16:23.230Z,1.60
2018-02-15T23:18:49.831Z,1.50
2018-02-15T23:21:16.441Z,1.90
2018-02-15T23:23:43.593Z,1.80
2018-02-15T23:26:10.175Z,1.50
2018-02-15T23:28:36.792Z,1.90
2018-02-15T23:31:04.128Z,2.50
2018-02-15T23:33:30.697Z,2.50
2018-02-15T23:35:57.412Z,2.60
2018-02-15T23:38:23.993Z,2.20
2018-02-15T23:40:50.582Z,1.20
2018-02-15T23:43:17.183Z,1.30
2018-02-15T23:45:43.855Z,1.00
2018-02-15T23:48:10.437Z,1.20
2018-02-15T23:50:37.045Z,1.30
2018-02-15T23:53:03.701Z,1.30
2018-02-15T23:55:30.299Z,1.00
2018-02-15T23:57:56.916Z,1.00
